Havre City County Airport
KHVR : now visible

Airfield :











YOU CAN JOIN US ON...

 
LOGIN :

Register | Disclaimer

   EN    FR    IT 

 









Legend :    VFR   Marginal VFR   IFR   Intensive IFR   Very Intensive IFR
Visi :
Ceiling :
>= 8 km
>= 3000ft
5 to 8 km
1000 to 3000 ft
1500m to 5 km
500 to 1000 ft
800 to 1500m
200 to 500 ft
< 800m
< 200 ft
Symbols :   Thunderstorms  Fog  Heavy snow  Heavy precipitations  Wind > 20 kt






- Airport Elevation : 2591 ft


KHVR - Havre City County

CURRENT METAR :
  • 172053Z AUTO 23018G25KT 10SM CLR 10/M01 A2960 RMK AO2 PK WND 23028/2036 SLP030 T01001006 $

EXPIRED METARs :
  • 171953Z AUTO 23015KT 10SM CLR 09/M01 A2961 RMK AO2 PK WND 23026/1911 SLP038 T00941011 $
  • 171853Z AUTO 23018G29KT 10SM CLR 10/M01 A2965 RMK AO2 PK WND 22029/1849 SLP048 T01001011 $

TAF KHVR
Valid from the 17 at 18:00 until the 18 at 18:00 UTC


171738Z 1718/1818 23015G26KT P6SM FEW250
FM180500 27018G26KT P6SM BKN120 WS020/29045KT
FM180600 31019G29KT P6SM SCT120
FM181000 32018G27KT P6SM BKN025 BKN090
PROB30 1812/1818 4SM -SN BR OVC025
KZLC FIR / North America



MET'MAP, your aeronautical weather chart ! - Copyright ORBIFLY December 2007 - Disclaimer

ORBIFLY MET'MAP TEAM :

Programming & Development : Alexandra Zaïnal
Concept & original design : Baudouin d'Aumeries
Assistance for programming : Marc-Olivier Méhu
Technical & hardware support : Manuel Goepfert

Contact : metmap@orbifly.com




SOURCES & CREDITS :

   NOAA       Earth
Advisory